createdAt,value
2023-05-14T00:01:12.970Z,97501.13
2023-05-14T00:03:44.185Z,97498.44
2023-05-14T00:06:15.269Z,97493.09
2023-05-14T00:08:46.114Z,97488.72
2023-05-14T00:11:16.829Z,97486.03
2023-05-14T00:13:50.531Z,97495.09
2023-05-14T00:16:21.298Z,97490.59
2023-05-14T00:18:52.259Z,97476.34
2023-05-14T00:21:23.024Z,97471.84
2023-05-14T00:23:53.837Z,97471.84
2023-05-14T00:26:24.644Z,97471.00
2023-05-14T00:28:58.231Z,97458.63
2023-05-14T00:31:28.996Z,97458.63
2023-05-14T00:34:00.360Z,97455.13
2023-05-14T00:36:31.606Z,97459.84
2023-05-14T00:39:02.457Z,97450.97
2023-05-14T00:41:33.269Z,97443.97
2023-05-14T00:44:06.970Z,97446.66
2023-05-14T00:46:37.770Z,97446.66
2023-05-14T00:49:09.194Z,97441.28
2023-05-14T00:51:40.278Z,97438.63
2023-05-14T00:54:11.458Z,97438.00
2023-05-14T00:56:42.251Z,97436.97
2023-05-14T00:59:15.926Z,97439.00
2023-05-14T01:01:46.765Z,97443.53
2023-05-14T01:04:17.714Z,97430.94
2023-05-14T01:06:57.346Z,97430.94
2023-05-14T01:09:33.150Z,97429.31
2023-05-14T01:12:11.111Z,97423.94
2023-05-14T01:14:54.998Z,97423.94
2023-05-14T01:17:27.893Z,97411.59
2023-05-14T01:19:59.901Z,97418.59
2023-05-14T01:22:33.235Z,97413.06
2023-05-14T01:25:04.073Z,97414.69
2023-05-14T01:27:41.725Z,97416.81
2023-05-14T01:30:19.946Z,97411.47
2023-05-14T01:32:54.277Z,97416.41
2023-05-14T01:35:27.699Z,97425.94
2023-05-14T01:38:04.252Z,97426.56
2023-05-14T01:40:36.593Z,97413.00
2023-05-14T01:43:08.133Z,97408.06
2023-05-14T01:45:40.408Z,97410.38
2023-05-14T01:48:11.346Z,97410.19
2023-05-14T01:50:42.229Z,97426.88
2023-05-14T01:53:15.624Z,97415.97
2023-05-14T01:55:46.542Z,97413.09
2023-05-14T01:58:17.492Z,97420.13
2023-05-14T02:00:48.418Z,97417.25
2023-05-14T02:03:19.202Z,97412.72
2023-05-14T02:05:50.132Z,97412.72
2023-05-14T02:08:23.465Z,97416.22
2023-05-14T02:10:54.410Z,97416.03
2023-05-14T02:13:26.797Z,97415.00
2023-05-14T02:15:57.722Z,97402.44
2023-05-14T02:18:29.241Z,97411.50
2023-05-14T02:21:00.260Z,97406.97
2023-05-14T02:23:40.862Z,97405.31
2023-05-14T02:26:13.142Z,97404.47
2023-05-14T02:28:43.919Z,97395.63
2023-05-14T02:31:17.957Z,97394.97
2023-05-14T02:33:48.659Z,97400.34
2023-05-14T02:36:19.443Z,97393.31
2023-05-14T02:38:52.665Z,97406.09
2023-05-14T02:41:23.441Z,97407.94
2023-05-14T02:43:56.095Z,97409.78
2023-05-14T02:46:27.166Z,97411.47
2023-05-14T02:48:59.110Z,97411.47
2023-05-14T02:51:30.045Z,97414.94
2023-05-14T02:54:03.340Z,97420.50
2023-05-14T02:56:34.128Z,97408.13
2023-05-14T02:59:04.871Z,97408.31
2023-05-14T03:01:36.143Z,97404.00
2023-05-14T03:04:08.090Z,97405.19
2023-05-14T03:06:38.914Z,97396.31
2023-05-14T03:09:12.487Z,97400.03
2023-05-14T03:11:43.438Z,97397.34
2023-05-14T03:14:14.251Z,97388.69
2023-05-14T03:16:45.079Z,97388.69
2023-05-14T03:19:16.026Z,97394.88
2023-05-14T03:21:48.023Z,97396.53
2023-05-14T03:24:21.393Z,97393.88
2023-05-14T03:26:52.188Z,97388.69
2023-05-14T03:29:23.079Z,97393.88
2023-05-14T03:31:54.874Z,97391.19
2023-05-14T03:34:25.835Z,97392.00
2023-05-14T03:36:56.525Z,97390.16
2023-05-14T03:39:29.953Z,97399.00
2023-05-14T03:42:00.690Z,97396.97
2023-05-14T03:44:31.626Z,97397.59
2023-05-14T03:47:02.418Z,97390.03
2023-05-14T03:49:33.641Z,97401.19
2023-05-14T03:52:04.565Z,97401.59
2023-05-14T03:54:38.889Z,97407.22
2023-05-14T03:57:09.764Z,97403.13
2023-05-14T03:59:40.557Z,97411.41
2023-05-14T04:02:11.451Z,97402.97
2023-05-14T04:04:42.725Z,97405.91
2023-05-14T04:07:13.572Z,97417.69
2023-05-14T04:09:47.010Z,97415.63
2023-05-14T04:12:17.700Z,97406.78
2023-05-14T04:14:48.480Z,97419.59
2023-05-14T04:17:19.169Z,97416.91
2023-05-14T04:19:49.910Z,97425.78
2023-05-14T04:22:20.666Z,97432.81
2023-05-14T04:24:54.067Z,97417.56
2023-05-14T04:27:25.129Z,97416.34
2023-05-14T04:29:55.928Z,97419.66
2023-05-14T04:32:26.726Z,97411.88
2023-05-14T04:34:57.577Z,97401.41
2023-05-14T04:37:28.352Z,97390.53
2023-05-14T04:40:02.004Z,97379.59
2023-05-14T04:42:35.976Z,97377.41
2023-05-14T04:45:07.369Z,97375.78
2023-05-14T04:47:38.396Z,97377.50
2023-05-14T04:50:10.995Z,97376.31
2023-05-14T04:52:42.285Z,97375.13
2023-05-14T04:55:16.160Z,97391.28
2023-05-14T04:57:46.876Z,97397.09
2023-05-14T05:00:18.348Z,97399.59
2023-05-14T05:02:49.090Z,97406.81
2023-05-14T05:05:19.882Z,97400.81
2023-05-14T05:07:50.665Z,97404.75
2023-05-14T05:10:24.606Z,97411.97
2023-05-14T05:12:55.590Z,97405.09
2023-05-14T05:15:26.852Z,97406.66
2023-05-14T05:17:57.729Z,97397.75
2023-05-14T05:20:28.610Z,97401.13
2023-05-14T05:22:59.896Z,97406.25
2023-05-14T05:25:33.287Z,97409.19
2023-05-14T05:28:04.065Z,97408.25
2023-05-14T05:30:35.003Z,97406.28
2023-05-14T05:33:05.681Z,97409.69
2023-05-14T05:35:36.429Z,97419.13
2023-05-14T05:38:07.651Z,97417.06
2023-05-14T05:40:41.123Z,97424.25
2023-05-14T05:43:12.010Z,97428.72
2023-05-14T05:45:42.789Z,97437.84
2023-05-14T05:48:13.731Z,97444.06
2023-05-14T05:50:45.181Z,97454.91
2023-05-14T05:53:17.141Z,97450.97
2023-05-14T05:55:51.882Z,97448.31
2023-05-14T05:58:22.779Z,97445.13
2023-05-14T06:00:53.697Z,97452.56
2023-05-14T06:03:24.799Z,97435.63
2023-05-14T06:05:55.687Z,97443.09
2023-05-14T06:08:26.439Z,97442.03
2023-05-14T06:10:59.843Z,97446.34
2023-05-14T06:13:30.553Z,97455.00
2023-05-14T06:16:01.336Z,97445.59
2023-05-14T06:18:32.203Z,97449.44
2023-05-14T06:21:03.139Z,97448.47
2023-05-14T06:23:33.984Z,97439.63
2023-05-14T06:26:07.398Z,97434.31
2023-05-14T06:28:38.310Z,97449.31
2023-05-14T06:31:09.147Z,97456.19
2023-05-14T06:33:40.091Z,97467.22
2023-05-14T06:36:11.914Z,97468.09
2023-05-14T06:38:42.602Z,97474.34
2023-05-14T06:41:16.005Z,97477.66
2023-05-14T06:43:46.655Z,97474.78
2023-05-14T06:46:17.348Z,97476.03
2023-05-14T06:48:48.136Z,97474.78
2023-05-14T06:51:19.154Z,97479.78
2023-05-14T06:53:49.977Z,97491.78
2023-05-14T06:56:24.036Z,97500.88
2023-05-14T06:58:54.804Z,97507.09
2023-05-14T07:01:25.650Z,97507.94
2023-05-14T07:03:56.455Z,97505.03
2023-05-14T07:06:27.276Z,97509.59
2023-05-14T07:08:58.078Z,97510.41
2023-05-14T07:11:31.607Z,97505.84
2023-05-14T07:14:02.420Z,97502.13
2023-05-14T07:16:33.282Z,97499.63
2023-05-14T07:19:04.110Z,97496.13
2023-05-14T07:21:35.020Z,97499.88
2023-05-14T07:24:05.854Z,97499.88
2023-05-14T07:26:39.571Z,97509.59
2023-05-14T07:29:10.964Z,97519.31
2023-05-14T07:31:41.814Z,97520.38
2023-05-14T07:34:13.120Z,97514.78
2023-05-14T07:36:44.128Z,97522.84
2023-05-14T07:39:14.934Z,97522.84
2023-05-14T07:41:48.345Z,97525.75
2023-05-14T07:44:19.124Z,97527.00
2023-05-14T07:46:49.993Z,97530.94
2023-05-14T07:49:20.781Z,97526.56
2023-05-14T07:51:51.630Z,97522.88
2023-05-14T07:54:22.273Z,97512.09
2023-05-14T07:56:55.717Z,97522.44
2023-05-14T07:59:26.580Z,97524.53
2023-05-14T08:01:57.925Z,97517.69
2023-05-14T08:04:28.741Z,97508.75
2023-05-14T08:06:59.789Z,97513.31
2023-05-14T08:09:30.540Z,97515.81
2023-05-14T08:12:04.203Z,97526.38
2023-05-14T08:14:34.954Z,97527.63
2023-05-14T08:17:06.464Z,97535.06
2023-05-14T08:19:37.190Z,97539.00
2023-05-14T08:22:08.429Z,97534.22
2023-05-14T08:24:39.406Z,97532.78
2023-05-14T08:27:12.891Z,97526.97
2023-05-14T08:29:43.534Z,97536.06
2023-05-14T08:32:22.617Z,97521.81
2023-05-14T08:34:54.826Z,97532.78
2023-05-14T08:37:25.479Z,97547.50
2023-05-14T08:39:56.663Z,97539.81
2023-05-14T08:42:31.828Z,97558.88
2023-05-14T08:45:05.044Z,97558.25
2023-05-14T08:47:37.518Z,97561.78
2023-05-14T08:50:10.145Z,97560.09
2023-05-14T08:52:41.347Z,97559.50
2023-05-14T08:55:15.060Z,97561.34
2023-05-14T08:57:48.915Z,97563.22
2023-05-14T09:00:20.016Z,97559.88
2023-05-14T09:02:51.832Z,97568.78
2023-05-14T09:05:24.077Z,97550.53
2023-05-14T09:07:55.208Z,97552.22
2023-05-14T09:10:26.653Z,97549.50
2023-05-14T09:13:00.425Z,97554.66
2023-05-14T09:15:32.386Z,97569.94
2023-05-14T09:18:03.321Z,97562.66
2023-05-14T09:20:34.927Z,97561.88
2023-05-14T09:23:05.773Z,97571.78
2023-05-14T09:25:36.674Z,97565.34
2023-05-14T09:28:12.243Z,97547.59
2023-05-14T09:30:42.946Z,97544.91
2023-05-14T09:33:13.697Z,97549.88
2023-05-14T09:35:44.907Z,97552.56
2023-05-14T09:38:16.027Z,97556.31
2023-05-14T09:40:46.731Z,97559.41
2023-05-14T09:43:20.244Z,97556.72
2023-05-14T09:45:50.920Z,97545.97
2023-05-14T09:48:22.743Z,97560.03
2023-05-14T09:50:53.469Z,97554.66
2023-05-14T09:53:24.430Z,97540.59
2023-05-14T09:55:55.254Z,97543.28
2023-05-14T09:58:29.867Z,97538.13
2023-05-14T10:01:02.069Z,97532.34
2023-05-14T10:03:33.795Z,97529.47
2023-05-14T10:06:10.983Z,97530.06
2023-05-14T10:08:46.827Z,97520.56
2023-05-14T10:11:25.287Z,97521.19
2023-05-14T10:14:06.220Z,97509.41
2023-05-14T10:16:38.315Z,97508.38
2023-05-14T10:19:12.327Z,97508.38
2023-05-14T10:21:45.490Z,97494.28
2023-05-14T10:24:16.968Z,97478.16
2023-05-14T10:26:48.376Z,97479.19
2023-05-14T10:29:21.795Z,97477.75
2023-05-14T10:31:54.591Z,97482.09
2023-05-14T10:34:37.945Z,97480.84
2023-05-14T10:37:11.255Z,97485.81
2023-05-14T10:39:50.062Z,97471.09
2023-05-14T10:42:23.623Z,97463.47
2023-05-14T10:44:59.066Z,97453.09
2023-05-14T10:47:31.208Z,97451.63
2023-05-14T10:50:04.049Z,97460.28
2023-05-14T10:52:35.409Z,97448.06
2023-05-14T10:55:08.028Z,97449.88
2023-05-14T10:57:41.505Z,97419.25
2023-05-14T11:00:16.880Z,97429.78
2023-05-14T11:02:48.090Z,97427.25
2023-05-14T11:05:20.042Z,97421.63
2023-05-14T11:07:52.566Z,97432.75
2023-05-14T11:10:26.141Z,97431.88
2023-05-14T11:12:57.066Z,97412.81
2023-05-14T11:15:30.637Z,97410.97
2023-05-14T11:18:01.287Z,97404.53
2023-05-14T11:20:33.103Z,97401.63
2023-05-14T11:23:03.878Z,97404.31
2023-05-14T11:25:34.800Z,97403.47
2023-05-14T11:28:05.575Z,97401.19
2023-05-14T11:30:39.447Z,97403.28
2023-05-14T11:33:10.447Z,97399.38
2023-05-14T11:35:42.456Z,97396.09
2023-05-14T11:38:17.776Z,97400.03
2023-05-14T11:40:56.103Z,97398.00
2023-05-14T11:43:29.572Z,97394.50
2023-05-14T11:46:03.103Z,97390.19
2023-05-14T11:48:36.393Z,97390.22
2023-05-14T11:51:08.188Z,97391.31
2023-05-14T11:53:38.973Z,97401.06
2023-05-14T11:56:10.166Z,97381.66
2023-05-14T11:58:41.024Z,97373.16
2023-05-14T12:01:17.103Z,97370.47
2023-05-14T12:03:48.039Z,97373.44
2023-05-14T12:06:18.850Z,97378.41
2023-05-14T12:08:51.945Z,97361.03
2023-05-14T12:11:24.763Z,97373.47
2023-05-14T12:13:56.590Z,97357.75
2023-05-14T12:16:36.205Z,97355.28
2023-05-14T12:19:09.294Z,97349.28
2023-05-14T12:21:40.952Z,97357.38
2023-05-14T12:24:14.682Z,97346.19
2023-05-14T12:26:47.966Z,97355.28
2023-05-14T12:29:19.786Z,97365.19
2023-05-14T12:31:53.840Z,97353.41
2023-05-14T12:34:24.711Z,97353.22
2023-05-14T12:36:55.619Z,97355.28
2023-05-14T12:39:26.499Z,97368.72
2023-05-14T12:41:57.334Z,97356.53
2023-05-14T12:44:28.307Z,97355.09
2023-05-14T12:47:01.836Z,97345.78
2023-05-14T12:49:32.859Z,97345.38
2023-05-14T12:52:22.359Z,97342.72
2023-05-14T12:54:54.333Z,97331.97
2023-05-14T12:57:25.061Z,97317.28
2023-05-14T12:59:55.873Z,97316.06
2023-05-14T13:02:29.458Z,97311.09
2023-05-14T13:05:02.990Z,97302.44
2023-05-14T13:07:34.698Z,97309.66
2023-05-14T13:10:06.026Z,97307.81
2023-05-14T13:12:37.151Z,97302.22
2023-05-14T13:15:09.173Z,97293.13
2023-05-14T13:17:42.729Z,97284.59
2023-05-14T13:20:14.550Z,97293.31
2023-05-14T13:22:45.468Z,97285.84
2023-05-14T13:25:16.348Z,97285.44
2023-05-14T13:27:47.457Z,97283.38
2023-05-14T13:30:19.937Z,97289.94
2023-05-14T13:32:53.345Z,97275.28
2023-05-14T13:35:24.463Z,97268.66
2023-05-14T13:37:55.415Z,97265.72
2023-05-14T13:40:26.404Z,97262.84
2023-05-14T13:42:57.103Z,97261.81
2023-05-14T13:45:27.930Z,97263.47
2023-05-14T13:48:01.344Z,97254.34
2023-05-14T13:50:32.166Z,97263.84
2023-05-14T13:53:02.800Z,97270.06
2023-05-14T13:55:33.631Z,97261.16
2023-05-14T13:58:05.291Z,97251.66
2023-05-14T14:00:36.188Z,97241.13
2023-05-14T14:03:10.187Z,97254.97
2023-05-14T14:05:41.169Z,97250.66
2023-05-14T14:08:22.534Z,97240.94
2023-05-14T14:10:55.826Z,97257.91
2023-05-14T14:13:29.854Z,97240.94
2023-05-14T14:16:00.503Z,97242.78
2023-05-14T14:18:33.939Z,97246.31
2023-05-14T14:21:04.863Z,97244.03
2023-05-14T14:23:35.612Z,97249.03
2023-05-14T14:26:06.612Z,97244.06
2023-05-14T14:28:37.404Z,97231.69
2023-05-14T14:31:08.441Z,97235.03
2023-05-14T14:33:41.863Z,97235.84
2023-05-14T14:36:12.766Z,97231.72
2023-05-14T14:38:43.574Z,97234.00
2023-05-14T14:41:14.380Z,97237.13
2023-05-14T14:43:45.172Z,97236.28
2023-05-14T14:46:16.287Z,97243.75
2023-05-14T14:48:49.590Z,97240.66
2023-05-14T14:51:20.470Z,97250.78
2023-05-14T14:53:51.232Z,97242.09
2023-05-14T14:56:22.441Z,97234.47
2023-05-14T14:58:53.318Z,97209.88
2023-05-14T15:01:24.546Z,97227.84
2023-05-14T15:03:57.968Z,97214.81
2023-05-14T15:06:28.844Z,97217.94
2023-05-14T15:08:59.994Z,97215.63
2023-05-14T15:11:34.049Z,97206.97
2023-05-14T15:14:08.068Z,97205.53
2023-05-14T15:16:38.949Z,97206.75
2023-05-14T15:19:12.515Z,97205.75
2023-05-14T15:21:43.396Z,97202.44
2023-05-14T15:24:15.874Z,97206.34
2023-05-14T15:26:46.643Z,97204.91
2023-05-14T15:29:17.452Z,97196.25
2023-05-14T15:31:48.787Z,97197.28
2023-05-14T15:34:22.278Z,97192.94
2023-05-14T15:36:52.989Z,97187.56
2023-05-14T15:39:23.877Z,97196.66
2023-05-14T15:41:54.539Z,97190.47
2023-05-14T15:44:25.373Z,97188.59
2023-05-14T15:46:56.170Z,97189.66
2023-05-14T15:49:29.684Z,97183.44
2023-05-14T15:52:00.984Z,97185.28
2023-05-14T15:54:32.110Z,97183.66
2023-05-14T15:57:02.859Z,97189.00
2023-05-14T15:59:36.025Z,97182.22
2023-05-14T16:02:06.862Z,97177.25
2023-05-14T16:04:40.270Z,97171.06
2023-05-14T16:07:12.600Z,97176.63
2023-05-14T16:09:43.609Z,97184.91
2023-05-14T16:12:14.688Z,97185.09
2023-05-14T16:14:45.591Z,97185.31
2023-05-14T16:17:16.420Z,97183.06
2023-05-14T16:19:49.851Z,97174.38
2023-05-14T16:22:20.733Z,97181.63
2023-05-14T16:24:51.525Z,97178.09
2023-05-14T16:27:22.355Z,97175.59
2023-05-14T16:29:53.207Z,97177.25
2023-05-14T16:32:25.382Z,97172.72
2023-05-14T16:34:58.854Z,97175.41
2023-05-14T16:37:29.674Z,97179.13
2023-05-14T16:40:00.648Z,97170.44
2023-05-14T16:42:33.091Z,97178.94
2023-05-14T16:45:03.919Z,97181.41
2023-05-14T16:47:39.004Z,97179.53
2023-05-14T16:50:13.387Z,97183.06
2023-05-14T16:52:44.225Z,97181.19
2023-05-14T16:55:15.071Z,97180.38
2023-05-14T16:57:46.918Z,97182.22
2023-05-14T17:00:18.654Z,97185.75
2023-05-14T17:02:50.195Z,97176.03
2023-05-14T17:05:24.268Z,97164.66
2023-05-14T17:07:55.806Z,97179.72
2023-05-14T17:10:27.679Z,97169.44
2023-05-14T17:12:58.544Z,97169.44
2023-05-14T17:15:29.822Z,97166.94
2023-05-14T17:18:00.827Z,97166.53
2023-05-14T17:20:34.626Z,97171.06
2023-05-14T17:23:05.509Z,97180.38
2023-05-14T17:25:36.571Z,97180.38
2023-05-14T17:28:07.486Z,97179.53
2023-05-14T17:30:38.521Z,97162.75
2023-05-14T17:33:09.302Z,97181.94
2023-05-14T17:35:44.202Z,97181.31
2023-05-14T17:38:15.282Z,97171.25
2023-05-14T17:40:46.040Z,97161.06
2023-05-14T17:43:16.793Z,97167.97
2023-05-14T17:48:24.259Z,97149.25
2023-05-14T17:50:57.648Z,97166.81
2023-05-14T17:53:28.468Z,97171.94
2023-05-14T17:55:59.444Z,97174.84
2023-05-14T17:58:30.338Z,97173.56
2023-05-14T18:01:01.140Z,97171.88
2023-05-14T18:03:32.167Z,97177.63
2023-05-14T18:06:05.716Z,97185.41
2023-05-14T18:08:36.458Z,97187.84
2023-05-14T18:11:07.438Z,97180.69
2023-05-14T18:13:38.296Z,97182.50
2023-05-14T18:16:09.407Z,97178.19
2023-05-14T18:18:40.335Z,97182.06
2023-05-14T18:21:13.799Z,97188.63
2023-05-14T18:23:44.536Z,97190.81
2023-05-14T18:26:15.427Z,97192.84
2023-05-14T18:28:46.316Z,97196.56
2023-05-14T18:31:18.206Z,97195.50
2023-05-14T18:33:49.309Z,97186.97
2023-05-14T18:36:23.372Z,97183.81
2023-05-14T18:38:54.205Z,97187.38
2023-05-14T18:41:25.004Z,97198.81
2023-05-14T18:43:55.780Z,97195.56
2023-05-14T18:46:27.112Z,97190.66
2023-05-14T18:48:59.794Z,97188.63
2023-05-14T18:51:33.283Z,97177.94
2023-05-14T18:54:04.085Z,97173.44
2023-05-14T18:56:34.992Z,97171.81
2023-05-14T18:59:05.848Z,97170.19
2023-05-14T19:01:36.757Z,97163.56
2023-05-14T19:04:08.552Z,97154.94
2023-05-14T19:06:42.857Z,97144.63
2023-05-14T19:09:15.084Z,97133.69
2023-05-14T19:11:45.846Z,97133.50
2023-05-14T19:14:16.584Z,97134.75
2023-05-14T19:16:47.420Z,97123.16
2023-05-14T19:19:18.368Z,97113.38
2023-05-14T19:21:52.038Z,97109.47
2023-05-14T19:24:22.978Z,97098.69
2023-05-14T19:26:53.960Z,97103.94
2023-05-14T19:29:25.286Z,97102.28
2023-05-14T19:31:56.547Z,97099.81
2023-05-14T19:34:27.519Z,97107.72
2023-05-14T19:37:00.931Z,97102.53
2023-05-14T19:39:32.032Z,97107.47
2023-05-14T19:42:02.951Z,97104.75
2023-05-14T19:44:34.097Z,97102.28
2023-05-14T19:47:05.009Z,97099.25
2023-05-14T19:49:35.891Z,97101.63
2023-05-14T19:52:11.564Z,97101.25
2023-05-14T19:54:42.311Z,97086.66
2023-05-14T19:57:13.307Z,97081.88
2023-05-14T19:59:44.791Z,97097.75
2023-05-14T20:02:18.701Z,97101.63
2023-05-14T20:04:49.820Z,97101.41
2023-05-14T20:07:25.430Z,97104.13
2023-05-14T20:09:56.341Z,97096.97
2023-05-14T20:12:27.971Z,97097.94
2023-05-14T20:14:58.944Z,97088.84
2023-05-14T20:17:30.072Z,97087.56
2023-05-14T20:20:00.804Z,97080.75
2023-05-14T20:22:35.122Z,97100.06
2023-05-14T20:25:06.021Z,97091.72
2023-05-14T20:27:36.868Z,97087.25
2023-05-14T20:30:09.000Z,97082.06
2023-05-14T20:32:39.803Z,97077.47
2023-05-14T20:35:11.327Z,97074.91
2023-05-14T20:37:44.899Z,97078.34
2023-05-14T20:40:16.299Z,97055.69
2023-05-14T20:42:47.181Z,97059.03
2023-05-14T20:45:17.904Z,97063.19
2023-05-14T20:47:48.795Z,97060.94
2023-05-14T20:50:19.573Z,97055.81
2023-05-14T20:52:52.960Z,97065.72
2023-05-14T20:55:23.953Z,97063.91
2023-05-14T20:57:54.975Z,97068.25
2023-05-14T21:00:25.721Z,97059.78
2023-05-14T21:02:56.764Z,97057.53
2023-05-14T21:05:27.922Z,97056.91
2023-05-14T21:08:01.479Z,97045.56
2023-05-14T21:10:32.316Z,97050.31
2023-05-14T21:13:03.202Z,97054.66
2023-05-14T21:15:33.874Z,97040.84
2023-05-14T21:18:05.371Z,97040.84
2023-05-14T21:20:36.077Z,97036.72
2023-05-14T21:23:09.554Z,97027.00
2023-05-14T21:25:40.338Z,97025.56
2023-05-14T21:28:11.426Z,97022.06
2023-05-14T21:30:42.209Z,97014.00
2023-05-14T21:33:13.111Z,97023.09
2023-05-14T21:35:43.821Z,97020.41
2023-05-14T21:38:17.337Z,97016.69
2023-05-14T21:40:48.076Z,97008.22
2023-05-14T21:43:19.030Z,97007.78
2023-05-14T21:45:50.245Z,97012.53
2023-05-14T21:48:21.364Z,97007.56
2023-05-14T21:50:52.442Z,97017.91
2023-05-14T21:53:26.112Z,96999.72
2023-05-14T21:55:57.043Z,96996.41
2023-05-14T21:58:27.874Z,96992.25
2023-05-14T22:00:58.687Z,96992.03
2023-05-14T22:03:29.555Z,96992.44
2023-05-14T22:06:00.954Z,96980.88
2023-05-14T22:08:34.262Z,96991.19
2023-05-14T22:11:04.947Z,96987.66
2023-05-14T22:13:37.860Z,96982.31
2023-05-14T22:16:13.510Z,96973.44
2023-05-14T22:18:44.961Z,96973.44
2023-05-14T22:21:15.720Z,96976.13
2023-05-14T22:23:50.132Z,96976.13
2023-05-14T22:26:21.907Z,96968.28
2023-05-14T22:28:52.989Z,96971.34
2023-05-14T22:31:23.712Z,96954.19
2023-05-14T22:33:54.785Z,96967.22
2023-05-14T22:36:25.584Z,96964.91
2023-05-14T22:38:59.054Z,96960.75
2023-05-14T22:41:29.822Z,96950.44
2023-05-14T22:44:00.921Z,96957.00
2023-05-14T22:46:31.921Z,96947.47
2023-05-14T22:49:03.591Z,96937.34
2023-05-14T22:51:34.380Z,96928.25
2023-05-14T22:54:07.966Z,96928.25
2023-05-14T22:56:39.228Z,96926.41
2023-05-14T22:59:10.080Z,96932.56
2023-05-14T23:01:41.033Z,96924.50
2023-05-14T23:04:11.819Z,96922.88
2023-05-14T23:06:42.599Z,96911.53
2023-05-14T23:09:16.202Z,96916.91
2023-05-14T23:11:47.045Z,96923.94
2023-05-14T23:14:18.198Z,96920.63
2023-05-14T23:16:48.918Z,96921.44
2023-05-14T23:19:20.503Z,96920.41
2023-05-14T23:21:51.331Z,96925.19
2023-05-14T23:24:24.877Z,96920.63
2023-05-14T23:26:56.104Z,96914.44
2023-05-14T23:29:27.066Z,96900.19
2023-05-14T23:31:57.953Z,96910.91
2023-05-14T23:34:28.764Z,96912.81
2023-05-14T23:36:59.592Z,96913.81
2023-05-14T23:39:33.144Z,96913.81
2023-05-14T23:42:03.956Z,96911.13
2023-05-14T23:44:34.706Z,96903.06
2023-05-14T23:47:05.797Z,96910.13
2023-05-14T23:49:37.003Z,96910.53
2023-05-14T23:52:08.435Z,96913.22
2023-05-14T23:54:41.983Z,96911.34
2023-05-14T23:57:14.704Z,96897.91
2023-05-14T23:59:46.475Z,96899.59
